EVLA/LPX METAR and TAF weather

Enter ICAO airport designator
Station Type Date Time Source
EVLA METAR 2018/04/19 12:50 UTC NOAA

EVLA 191250Z AUTO 31007KT 9999 NCD 12/06 Q1028


Station Type Date Time Source
EVLA Decoded METAR 2018/04/19 12:50 UTC NOAA

Liepaja International Airport, Latvia (EVLA) 56-31N 021-05E
Apr 19, 2018 - 08:50 AM EDT / 2018.04.19 1250 UTC
Wind: from the NW (310 degrees) at 8 MPH (7 KT):0
Visibility: greater than 7 mile(s):0
Temperature: 53 F (12 C)
Dew Point: 42 F (6 C)
Relative Humidity: 66%
Pressure (altimeter): 30.36 in. Hg (1028 hPa)
ob: EVLA 191250Z AUTO 31007KT 9999 NCD 12/06 Q1028
cycle: 13

Station Type Date Time Source
EVLA TAF 2018/04/19 12:04 UTC NOAA

TAF EVLA 191101Z 1912/2012 32007KT CAVOK
TEMPO 1912/1914 33012G25KT
TEMPO 1920/1924 0700 FG
BECMG 1921/1923 26006KT
TEMPO 2000/2006 0500 FG VV001


Example: see airport list